createdAt,value
2023-02-05T00:00:46.502Z,8.04
2023-02-05T00:03:31.690Z,8.03
2023-02-05T00:06:16.985Z,8.09
2023-02-05T00:09:02.107Z,8.12
2023-02-05T00:11:50.450Z,8.13
2023-02-05T00:14:35.497Z,8.14
2023-02-05T00:17:20.623Z,8.14
2023-02-05T00:20:06.307Z,8.23
2023-02-05T00:22:51.520Z,8.25
2023-02-05T00:25:36.796Z,8.10
2023-02-05T00:28:21.868Z,8.24
2023-02-05T00:31:13.020Z,8.24
2023-02-05T00:33:58.478Z,8.24
2023-02-05T00:36:43.934Z,8.26
2023-02-05T00:39:28.789Z,8.25
2023-02-05T00:42:13.950Z,8.12
2023-02-05T00:44:58.924Z,8.25
2023-02-05T00:47:44.019Z,8.22
2023-02-05T00:50:29.242Z,8.23
2023-02-05T00:53:14.468Z,8.27
2023-02-05T00:55:59.986Z,8.28
2023-02-05T00:58:47.828Z,8.26
2023-02-05T01:01:32.972Z,8.25
2023-02-05T01:04:18.060Z,8.18
2023-02-05T01:07:03.116Z,8.17
2023-02-05T01:09:48.028Z,8.20
2023-02-05T01:12:33.345Z,8.20
2023-02-05T01:15:19.304Z,8.25
2023-02-05T01:18:04.341Z,8.27
2023-02-05T01:20:49.728Z,8.28
2023-02-05T01:23:34.843Z,8.32
2023-02-05T01:26:19.994Z,8.27
2023-02-05T01:29:05.206Z,8.23
2023-02-05T01:31:50.229Z,8.34
2023-02-05T01:34:35.752Z,8.28
2023-02-05T01:37:21.168Z,8.19
2023-02-05T01:40:07.101Z,8.11
2023-02-05T01:42:52.317Z,8.10
2023-02-05T01:46:05.283Z,8.08
2023-02-05T01:48:54.800Z,8.00
2023-02-05T01:51:40.700Z,7.94
2023-02-05T01:54:30.536Z,7.98
2023-02-05T01:57:20.937Z,7.92
2023-02-05T02:00:07.618Z,7.95
2023-02-05T02:02:53.609Z,7.94
2023-02-05T02:05:38.523Z,7.93
2023-02-05T02:08:23.661Z,7.88
2023-02-05T02:11:13.115Z,7.88
2023-02-05T02:14:00.644Z,7.90
2023-02-05T02:16:46.832Z,7.88
2023-02-05T02:19:40.180Z,7.84
2023-02-05T02:22:53.193Z,7.83
2023-02-05T02:26:06.364Z,7.81
2023-02-05T02:28:55.297Z,7.90
2023-02-05T02:31:47.580Z,8.02
2023-02-05T02:34:41.516Z,8.09
2023-02-05T02:37:37.035Z,8.09
2023-02-05T02:40:29.921Z,8.20
2023-02-05T02:43:32.279Z,8.15
2023-02-05T02:46:31.783Z,8.06
2023-02-05T02:49:23.904Z,8.13
2023-02-05T02:52:13.140Z,8.22
2023-02-05T02:55:04.329Z,8.25
2023-02-05T02:57:52.585Z,8.25
2023-02-05T03:00:40.177Z,8.30
2023-02-05T03:03:28.023Z,8.27
2023-02-05T03:06:15.360Z,8.24
2023-02-05T03:09:07.866Z,8.16
2023-02-05T03:11:52.930Z,8.24
2023-02-05T03:14:38.713Z,8.25
2023-02-05T03:17:27.097Z,8.23
2023-02-05T03:20:25.280Z,8.18
2023-02-05T03:23:10.205Z,8.12
2023-02-05T03:25:55.943Z,8.09
2023-02-05T03:28:41.128Z,8.09
2023-02-05T03:31:41.817Z,7.95
2023-02-05T03:34:51.662Z,8.00
2023-02-05T03:37:56.167Z,7.92
2023-02-05T03:40:44.061Z,7.86
2023-02-05T03:43:43.500Z,7.78
2023-02-05T03:46:47.812Z,7.66
2023-02-05T03:49:53.588Z,7.59
2023-02-05T03:52:45.315Z,7.58
2023-02-05T03:55:38.171Z,7.47
2023-02-05T03:58:30.576Z,7.56
2023-02-05T04:01:15.910Z,7.50
2023-02-05T04:04:01.418Z,7.45
2023-02-05T04:06:48.662Z,7.40
2023-02-05T04:09:33.665Z,7.35
2023-02-05T04:12:18.933Z,7.31
2023-02-05T04:15:04.283Z,7.18
2023-02-05T04:17:49.322Z,7.25
2023-02-05T04:20:34.565Z,7.17
2023-02-05T04:23:19.692Z,7.04
2023-02-05T04:26:04.893Z,7.10
2023-02-05T04:28:50.025Z,7.00
2023-02-05T04:31:34.933Z,6.98
2023-02-05T04:34:19.664Z,6.94
2023-02-05T04:37:04.755Z,6.87
2023-02-05T04:39:49.982Z,6.80
2023-02-05T04:42:35.098Z,6.69
2023-02-05T04:45:21.436Z,6.60
2023-02-05T04:48:06.770Z,6.43
2023-02-05T04:50:51.814Z,6.38
2023-02-05T04:53:37.485Z,6.36
2023-02-05T04:56:22.788Z,6.26
2023-02-05T04:59:08.035Z,6.31
2023-02-05T05:01:53.250Z,6.32
2023-02-05T05:04:38.385Z,6.30
2023-02-05T05:07:23.575Z,6.28
2023-02-05T05:10:09.520Z,6.17
2023-02-05T05:12:54.704Z,6.06
2023-02-05T05:15:40.339Z,6.07
2023-02-05T05:18:25.583Z,6.10
2023-02-05T05:21:11.004Z,6.04
2023-02-05T05:23:56.191Z,6.00
2023-02-05T05:26:44.978Z,5.91
2023-02-05T05:29:29.985Z,5.91
2023-02-05T05:32:15.358Z,5.80
2023-02-05T05:35:00.573Z,5.70
2023-02-05T05:37:45.842Z,5.60
2023-02-05T05:40:49.536Z,5.59
2023-02-05T05:43:46.869Z,5.45
2023-02-05T05:46:32.249Z,5.42
2023-02-05T05:49:17.129Z,5.34
2023-02-05T05:52:02.051Z,5.28
2023-02-05T05:54:46.979Z,5.36
2023-02-05T05:57:32.280Z,5.22
2023-02-05T06:00:17.679Z,5.22
2023-02-05T06:03:04.165Z,5.18
2023-02-05T06:05:50.154Z,5.18
2023-02-05T06:08:35.429Z,5.14
2023-02-05T06:11:20.596Z,5.02
2023-02-05T06:14:05.762Z,5.07
2023-02-05T06:16:52.072Z,5.06
2023-02-05T06:19:37.039Z,5.00
2023-02-05T06:22:21.932Z,4.98
2023-02-05T06:25:07.589Z,4.96
2023-02-05T06:27:52.845Z,4.89
2023-02-05T06:30:38.737Z,4.89
2023-02-05T06:33:23.519Z,4.91
2023-02-05T06:36:08.821Z,4.78
2023-02-05T06:38:54.232Z,4.78
2023-02-05T06:41:39.368Z,4.52
2023-02-05T06:44:24.409Z,4.67
2023-02-05T06:47:10.682Z,4.48
2023-02-05T06:49:55.974Z,4.59
2023-02-05T06:52:41.292Z,4.60
2023-02-05T06:55:26.485Z,4.62
2023-02-05T06:58:11.484Z,4.38
2023-02-05T07:00:56.447Z,4.50
2023-02-05T07:03:41.671Z,4.50
2023-02-05T07:06:27.380Z,4.50
2023-02-05T07:09:12.711Z,4.53
2023-02-05T07:11:57.693Z,4.41
2023-02-05T07:14:43.149Z,4.40
2023-02-05T07:17:28.563Z,4.51
2023-02-05T07:20:13.802Z,4.47
2023-02-05T07:22:59.076Z,4.37
2023-02-05T07:25:44.223Z,4.39
2023-02-05T07:28:29.415Z,4.20
2023-02-05T07:31:20.774Z,4.30
2023-02-05T07:34:05.753Z,4.28
2023-02-05T07:36:52.939Z,4.16
2023-02-05T07:39:37.965Z,4.14
2023-02-05T07:42:22.783Z,4.15
2023-02-05T07:45:08.374Z,4.17
2023-02-05T07:47:53.920Z,4.11
2023-02-05T07:50:44.935Z,4.15
2023-02-05T07:53:30.546Z,4.13
2023-02-05T07:56:16.382Z,4.14
2023-02-05T07:59:02.007Z,4.18
2023-02-05T08:01:46.877Z,4.19
2023-02-05T08:04:32.065Z,4.30
2023-02-05T08:07:17.447Z,4.32
2023-02-05T08:10:02.719Z,4.28
2023-02-05T08:12:47.956Z,4.23
2023-02-05T08:15:33.493Z,4.29
2023-02-05T08:18:19.583Z,4.34
2023-02-05T08:21:04.784Z,4.37
2023-02-05T08:23:50.033Z,4.25
2023-02-05T08:26:35.289Z,4.32
2023-02-05T08:29:20.237Z,4.36
2023-02-05T08:32:05.370Z,4.35
2023-02-05T08:34:50.405Z,4.38
2023-02-05T08:37:35.597Z,4.33
2023-02-05T08:40:20.907Z,4.34
2023-02-05T08:43:08.382Z,4.36
2023-02-05T08:45:53.628Z,4.41
2023-02-05T08:48:38.813Z,4.47
2023-02-05T08:51:24.654Z,4.48
2023-02-05T08:54:13.058Z,4.55
2023-02-05T08:56:58.482Z,4.62
2023-02-05T08:59:43.673Z,4.63
2023-02-05T09:02:31.817Z,4.69
2023-02-05T09:05:17.720Z,4.77
2023-02-05T09:08:02.829Z,4.80
2023-02-05T09:10:47.973Z,4.86
2023-02-05T09:13:34.283Z,4.94
2023-02-05T09:16:19.689Z,4.90
2023-02-05T09:19:05.178Z,4.98
2023-02-05T09:21:50.074Z,5.01
2023-02-05T09:24:37.365Z,5.04
2023-02-05T09:27:22.388Z,5.10
2023-02-05T09:30:08.043Z,5.15
2023-02-05T09:32:53.060Z,5.27
2023-02-05T09:35:38.020Z,5.30
2023-02-05T09:38:22.989Z,5.39
2023-02-05T09:41:13.999Z,5.46
2023-02-05T09:44:15.344Z,5.50
2023-02-05T09:47:22.553Z,5.48
2023-02-05T09:50:30.072Z,5.52
2023-02-05T09:53:19.401Z,5.56
2023-02-05T09:56:08.068Z,5.55
2023-02-05T09:58:56.896Z,5.55
2023-02-05T10:01:59.715Z,5.53
2023-02-05T10:04:44.868Z,5.72
2023-02-05T10:07:48.595Z,5.83
2023-02-05T10:10:44.069Z,5.91
2023-02-05T10:13:36.611Z,5.96
2023-02-05T10:16:48.908Z,5.98
2023-02-05T10:20:25.512Z,6.16
2023-02-05T10:23:44.275Z,6.27
2023-02-05T10:26:41.393Z,6.35
2023-02-05T10:29:39.880Z,6.37
2023-02-05T10:32:38.988Z,6.45
2023-02-05T10:35:27.040Z,6.56
2023-02-05T10:38:23.994Z,6.67
2023-02-05T10:41:31.860Z,6.68
2023-02-05T10:44:40.265Z,6.76
2023-02-05T10:47:57.591Z,6.85
2023-02-05T10:51:03.705Z,6.99
2023-02-05T10:53:48.943Z,7.03
2023-02-05T10:56:33.898Z,7.17
2023-02-05T10:59:28.378Z,7.25
2023-02-05T11:02:14.590Z,7.20
2023-02-05T11:05:08.000Z,7.18
2023-02-05T11:07:54.421Z,7.28
2023-02-05T11:10:39.337Z,7.21
2023-02-05T11:13:24.994Z,7.25
2023-02-05T11:16:10.895Z,7.24
2023-02-05T11:18:59.684Z,7.37
2023-02-05T11:21:49.397Z,7.58
2023-02-05T11:24:36.734Z,7.49
2023-02-05T11:27:26.789Z,7.59
2023-02-05T11:30:52.676Z,7.73
2023-02-05T11:33:38.327Z,7.81
2023-02-05T11:36:25.306Z,7.80
2023-02-05T11:39:26.863Z,7.86
2023-02-05T11:42:21.385Z,7.93
2023-02-05T11:45:19.968Z,7.95
2023-02-05T11:48:20.806Z,7.92
2023-02-05T11:51:08.342Z,8.13
2023-02-05T11:53:57.260Z,8.07
2023-02-05T11:56:42.565Z,8.10
2023-02-05T11:59:28.137Z,8.35
2023-02-05T12:02:34.975Z,8.50
2023-02-05T12:05:26.472Z,8.33
2023-02-05T12:08:23.162Z,8.27
2023-02-05T12:11:15.334Z,8.44
2023-02-05T12:14:12.431Z,8.59
2023-02-05T12:17:16.136Z,8.71
2023-02-05T12:20:07.335Z,8.74
2023-02-05T12:23:20.041Z,8.74
2023-02-05T12:26:22.262Z,8.93
2023-02-05T12:29:44.903Z,8.71
2023-02-05T12:33:04.738Z,8.72
2023-02-05T12:36:11.644Z,8.76
2023-02-05T12:39:15.001Z,8.74
2023-02-05T12:42:20.774Z,8.72
2023-02-05T12:45:17.931Z,8.56
2023-02-05T12:48:30.965Z,8.71
2023-02-05T12:51:31.353Z,8.86
2023-02-05T12:54:24.258Z,8.78
2023-02-05T12:57:20.377Z,8.75
2023-02-05T13:00:13.621Z,8.74
2023-02-05T13:03:37.640Z,8.73
2023-02-05T13:06:29.619Z,8.71
2023-02-05T13:09:29.669Z,8.58
2023-02-05T13:12:19.181Z,8.48
2023-02-05T13:15:17.540Z,8.51
2023-02-05T13:18:22.210Z,8.51
2023-02-05T13:21:37.166Z,8.48
2023-02-05T13:24:49.951Z,8.86
2023-02-05T13:27:59.441Z,9.06
2023-02-05T13:30:50.653Z,9.12
2023-02-05T13:33:36.099Z,9.18
2023-02-05T13:36:24.542Z,9.16
2023-02-05T13:39:34.317Z,9.39
2023-02-05T13:42:50.626Z,9.46
2023-02-05T13:45:55.816Z,9.47
2023-02-05T13:49:02.737Z,9.53
2023-02-05T13:51:59.855Z,9.56
2023-02-05T13:55:08.460Z,9.57
2023-02-05T13:58:24.525Z,9.64
2023-02-05T14:01:24.081Z,9.68
2023-02-05T14:04:40.523Z,9.73
2023-02-05T14:07:50.729Z,9.86
2023-02-05T14:10:40.839Z,9.89
2023-02-05T14:13:32.461Z,9.78
2023-02-05T14:16:23.795Z,9.78
2023-02-05T14:19:18.730Z,9.86
2023-02-05T14:22:25.363Z,10.07
2023-02-05T14:25:38.774Z,10.03
2023-02-05T14:28:29.721Z,10.11
2023-02-05T14:31:48.163Z,9.92
2023-02-05T14:34:33.082Z,10.04
2023-02-05T14:37:32.642Z,10.15
2023-02-05T14:40:28.434Z,10.14
2023-02-05T14:43:36.599Z,10.01
2023-02-05T14:46:54.726Z,9.78
2023-02-05T14:49:43.148Z,9.69
2023-02-05T14:52:47.601Z,9.72
2023-02-05T14:55:40.288Z,9.79
2023-02-05T14:58:34.568Z,9.67
2023-02-05T15:01:33.292Z,9.70
2023-02-05T15:04:50.339Z,9.62
2023-02-05T15:07:37.157Z,9.54
2023-02-05T15:10:26.959Z,9.35
2023-02-05T15:13:13.349Z,9.34
2023-02-05T15:16:16.996Z,9.19
2023-02-05T15:19:05.960Z,9.14
2023-02-05T15:21:52.835Z,9.14
2023-02-05T15:24:38.868Z,9.01
2023-02-05T15:27:47.145Z,8.90
2023-02-05T15:30:59.726Z,8.90
2023-02-05T15:34:20.919Z,8.91
2023-02-05T15:37:17.213Z,8.84
2023-02-05T15:40:31.970Z,8.87
2023-02-05T15:43:27.329Z,8.71
2023-02-05T15:46:16.688Z,8.69
2023-02-05T15:49:01.828Z,8.66
2023-02-05T15:51:47.945Z,8.57
2023-02-05T15:54:35.840Z,8.55
2023-02-05T15:57:24.600Z,8.54
2023-02-05T16:00:11.046Z,8.46
2023-02-05T16:02:59.586Z,8.39
2023-02-05T16:05:52.863Z,8.32
2023-02-05T16:08:45.843Z,8.33
2023-02-05T16:11:35.418Z,8.31
2023-02-05T16:14:22.886Z,8.30
2023-02-05T16:17:15.461Z,8.30
2023-02-05T16:20:49.047Z,8.24
2023-02-05T16:23:50.891Z,8.10
2023-02-05T16:26:46.122Z,8.09
2023-02-05T16:29:48.074Z,8.13
2023-02-05T16:32:42.371Z,8.07
2023-02-05T16:35:35.230Z,7.93
2023-02-05T16:38:23.229Z,7.92
2023-02-05T16:41:20.476Z,7.66
2023-02-05T16:44:07.657Z,7.79
2023-02-05T16:47:17.675Z,7.78
2023-02-05T16:50:22.457Z,7.74
2023-02-05T16:53:20.000Z,7.74
2023-02-05T16:56:18.032Z,7.69
2023-02-05T16:59:05.470Z,7.66
2023-02-05T17:01:52.661Z,7.54
2023-02-05T17:04:38.897Z,7.58
2023-02-05T17:07:24.656Z,7.36
2023-02-05T17:10:16.629Z,7.36
2023-02-05T17:13:05.098Z,7.42
2023-02-05T17:15:50.013Z,7.39
2023-02-05T17:18:35.083Z,7.33
2023-02-05T17:21:27.159Z,7.22
2023-02-05T17:24:14.577Z,7.31
2023-02-05T17:26:59.465Z,7.29
2023-02-05T17:29:45.659Z,7.28
2023-02-05T17:32:31.623Z,7.24
2023-02-05T17:35:18.084Z,7.17
2023-02-05T17:38:03.312Z,7.15
2023-02-05T17:40:48.684Z,7.05
2023-02-05T17:43:33.648Z,6.93
2023-02-05T17:46:18.755Z,6.85
2023-02-05T17:49:03.881Z,6.79
2023-02-05T17:51:49.235Z,6.65
2023-02-05T17:54:34.382Z,6.48
2023-02-05T17:57:22.515Z,6.43
2023-02-05T18:00:08.363Z,6.48
2023-02-05T18:02:53.742Z,6.49
2023-02-05T18:05:38.990Z,6.51
2023-02-05T18:08:24.330Z,6.51
2023-02-05T18:11:10.418Z,6.43
2023-02-05T18:13:55.482Z,6.48
2023-02-05T18:16:40.590Z,6.33
2023-02-05T18:19:26.224Z,6.41
2023-02-05T18:22:11.006Z,6.32
2023-02-05T18:24:55.902Z,6.20
2023-02-05T18:27:41.262Z,6.18
2023-02-05T18:30:26.775Z,6.11
2023-02-05T18:33:12.586Z,6.00
2023-02-05T18:36:07.181Z,5.91
2023-02-05T18:38:52.096Z,5.88
2023-02-05T18:41:38.885Z,5.99
2023-02-05T18:44:25.551Z,5.89
2023-02-05T18:47:11.413Z,5.80
2023-02-05T18:49:56.701Z,5.69
2023-02-05T18:52:41.969Z,5.60
2023-02-05T18:55:27.114Z,5.45
2023-02-05T18:58:12.515Z,5.33
2023-02-05T19:00:57.751Z,5.38
2023-02-05T19:03:43.994Z,5.39
2023-02-05T19:06:29.260Z,5.31
2023-02-05T19:09:14.377Z,5.21
2023-02-05T19:11:59.849Z,5.14
2023-02-05T19:14:45.102Z,5.11
2023-02-05T19:17:30.254Z,4.92
2023-02-05T19:20:15.477Z,4.63
2023-02-05T19:23:00.625Z,4.66
2023-02-05T19:25:45.651Z,4.62
2023-02-05T19:28:32.586Z,4.59
2023-02-05T19:31:17.963Z,4.64
2023-02-05T19:34:03.766Z,4.64
2023-02-05T19:36:49.021Z,4.63
2023-02-05T19:39:34.197Z,4.54
2023-02-05T19:42:19.363Z,4.47
2023-02-05T19:45:04.867Z,4.54
2023-02-05T19:47:49.871Z,4.46
2023-02-05T19:50:35.552Z,4.27
2023-02-05T19:53:22.705Z,4.06
2023-02-05T19:56:10.388Z,4.10
2023-02-05T19:58:56.252Z,4.05
2023-02-05T20:01:43.699Z,3.93
2023-02-05T20:04:29.925Z,3.85
2023-02-05T20:07:14.898Z,3.80
2023-02-05T20:09:59.724Z,3.75
2023-02-05T20:12:45.037Z,3.69
2023-02-05T20:15:30.074Z,3.66
2023-02-05T20:18:15.073Z,3.64
2023-02-05T20:21:00.177Z,3.57
2023-02-05T20:23:46.522Z,3.57
2023-02-05T20:26:31.985Z,3.51
2023-02-05T20:29:35.757Z,3.36
2023-02-05T20:32:20.918Z,3.33
2023-02-05T20:35:06.379Z,3.32
2023-02-05T20:37:51.308Z,3.34
2023-02-05T20:40:36.801Z,3.23
2023-02-05T20:43:22.220Z,3.29
2023-02-05T20:46:08.083Z,3.21
2023-02-05T20:48:53.214Z,3.15
2023-02-05T20:51:38.342Z,2.99
2023-02-05T20:54:23.721Z,3.03
2023-02-05T20:57:09.142Z,3.02
2023-02-05T20:59:57.937Z,2.98
2023-02-05T21:02:43.158Z,3.09
2023-02-05T21:05:27.932Z,3.30
2023-02-05T21:08:13.004Z,3.25
2023-02-05T21:10:58.360Z,3.24
2023-02-05T21:13:45.345Z,3.19
2023-02-05T21:16:30.737Z,3.09
2023-02-05T21:19:15.701Z,2.98
2023-02-05T21:22:01.392Z,2.96
2023-02-05T21:24:46.359Z,2.95
2023-02-05T21:27:31.403Z,2.91
2023-02-05T21:30:16.619Z,2.96
2023-02-05T21:33:01.515Z,2.94
2023-02-05T21:35:46.462Z,2.69
2023-02-05T21:38:34.738Z,2.65
2023-02-05T21:41:19.895Z,2.75
2023-02-05T21:44:05.352Z,2.75
2023-02-05T21:46:50.590Z,2.71
2023-02-05T21:49:35.894Z,2.73
2023-02-05T21:52:20.680Z,2.71
2023-02-05T21:55:05.951Z,2.76
2023-02-05T21:57:50.891Z,2.71
2023-02-05T22:00:36.160Z,2.62
2023-02-05T22:03:21.463Z,2.50
2023-02-05T22:06:07.253Z,2.63
2023-02-05T22:08:52.793Z,2.67
2023-02-05T22:11:39.393Z,2.58
2023-02-05T22:14:24.569Z,2.58
2023-02-05T22:17:09.630Z,2.61
2023-02-05T22:19:54.592Z,2.63
2023-02-05T22:22:39.655Z,2.58
2023-02-05T22:25:24.915Z,2.60
2023-02-05T22:28:09.833Z,2.68
2023-02-05T22:31:07.581Z,2.89
2023-02-05T22:33:53.960Z,2.97
2023-02-05T22:36:39.416Z,2.93
2023-02-05T22:39:24.646Z,2.87
2023-02-05T22:42:09.568Z,2.81
2023-02-05T22:44:55.259Z,2.77
2023-02-05T22:47:40.666Z,2.68
2023-02-05T22:50:26.168Z,2.69
2023-02-05T22:53:12.351Z,2.79
2023-02-05T22:56:04.863Z,2.98
2023-02-05T22:58:51.375Z,3.14
2023-02-05T23:01:38.969Z,3.00
2023-02-05T23:04:24.017Z,2.92
2023-02-05T23:07:09.107Z,2.95
2023-02-05T23:09:54.064Z,2.99
2023-02-05T23:12:38.962Z,3.04
2023-02-05T23:15:24.035Z,3.11
2023-02-05T23:18:09.470Z,3.01
2023-02-05T23:20:54.750Z,2.92
2023-02-05T23:23:40.433Z,2.65
2023-02-05T23:26:28.782Z,2.89
2023-02-05T23:29:15.486Z,2.83
2023-02-05T23:32:00.305Z,2.77
2023-02-05T23:34:45.624Z,2.75
2023-02-05T23:37:30.565Z,2.75
2023-02-05T23:40:15.810Z,2.69
2023-02-05T23:43:01.042Z,2.74
2023-02-05T23:45:46.490Z,2.74
2023-02-05T23:48:31.639Z,2.72
2023-02-05T23:51:16.597Z,2.68
2023-02-05T23:54:01.912Z,2.76
2023-02-05T23:56:46.892Z,2.79
2023-02-05T23:59:32.196Z,2.71
